sensor_id;sensor_type;location;lat;lon;timestamp;pressure;altitude;pressure_sealevel;temperature
68012;BMP180;54794;48.348;7.878;2022-07-06T00:01:03;99687.00;;;23.60
68012;BMP180;54794;48.348;7.878;2022-07-06T00:03:30;99683.00;;;23.50
68012;BMP180;54794;48.348;7.878;2022-07-06T00:05:57;99693.00;;;23.50
68012;BMP180;54794;48.348;7.878;2022-07-06T00:08:24;99689.00;;;23.40
68012;BMP180;54794;48.348;7.878;2022-07-06T00:10:51;99694.00;;;23.30
68012;BMP180;54794;48.348;7.878;2022-07-06T00:13:18;99694.00;;;23.30
68012;BMP180;54794;48.348;7.878;2022-07-06T00:15:45;99689.00;;;23.20
68012;BMP180;54794;48.348;7.878;2022-07-06T00:18:12;99698.00;;;23.20
68012;BMP180;54794;48.348;7.878;2022-07-06T00:20:39;99686.00;;;23.10
68012;BMP180;54794;48.348;7.878;2022-07-06T00:23:06;99689.00;;;23.00
68012;BMP180;54794;48.348;7.878;2022-07-06T00:25:32;99680.00;;;23.00
68012;BMP180;54794;48.348;7.878;2022-07-06T00:28:00;99682.00;;;22.90
68012;BMP180;54794;48.348;7.878;2022-07-06T00:30:26;99685.00;;;22.90
68012;BMP180;54794;48.348;7.878;2022-07-06T00:32:54;99687.00;;;22.80
68012;BMP180;54794;48.348;7.878;2022-07-06T00:35:21;99695.00;;;22.80
68012;BMP180;54794;48.348;7.878;2022-07-06T00:37:49;99705.00;;;22.70
68012;BMP180;54794;48.348;7.878;2022-07-06T00:40:17;99696.00;;;22.70
68012;BMP180;54794;48.348;7.878;2022-07-06T00:42:47;99698.00;;;22.60
68012;BMP180;54794;48.348;7.878;2022-07-06T00:45:16;99699.00;;;22.60
68012;BMP180;54794;48.348;7.878;2022-07-06T00:47:44;99714.00;;;22.50
68012;BMP180;54794;48.348;7.878;2022-07-06T00:50:14;99706.00;;;22.50
68012;BMP180;54794;48.348;7.878;2022-07-06T00:52:57;99698.00;;;22.50
68012;BMP180;54794;48.348;7.878;2022-07-06T00:55:35;99702.00;;;22.40
68012;BMP180;54794;48.348;7.878;2022-07-06T00:58:03;99687.00;;;22.40
68012;BMP180;54794;48.348;7.878;2022-07-06T01:00:32;99700.00;;;22.40
68012;BMP180;54794;48.348;7.878;2022-07-06T01:02:59;99679.00;;;22.40
68012;BMP180;54794;48.348;7.878;2022-07-06T01:05:26;99688.00;;;22.30
68012;BMP180;54794;48.348;7.878;2022-07-06T01:07:54;99696.00;;;22.30
68012;BMP180;54794;48.348;7.878;2022-07-06T01:10:22;99682.00;;;22.30
68012;BMP180;54794;48.348;7.878;2022-07-06T01:12:50;99703.00;;;22.30
68012;BMP180;54794;48.348;7.878;2022-07-06T01:15:24;99685.00;;;22.30
68012;BMP180;54794;48.348;7.878;2022-07-06T01:17:52;99699.00;;;22.30
68012;BMP180;54794;48.348;7.878;2022-07-06T01:20:24;99701.00;;;22.30
68012;BMP180;54794;48.348;7.878;2022-07-06T01:22:54;99706.00;;;22.20
68012;BMP180;54794;48.348;7.878;2022-07-06T01:25:23;99698.00;;;22.20
68012;BMP180;54794;48.348;7.878;2022-07-06T01:27:50;99703.00;;;22.20
68012;BMP180;54794;48.348;7.878;2022-07-06T01:30:19;99704.00;;;22.20
68012;BMP180;54794;48.348;7.878;2022-07-06T01:32:46;99693.00;;;22.20
68012;BMP180;54794;48.348;7.878;2022-07-06T01:35:15;99694.00;;;22.10
68012;BMP180;54794;48.348;7.878;2022-07-06T01:37:43;99691.00;;;22.10
68012;BMP180;54794;48.348;7.878;2022-07-06T01:40:12;99686.00;;;22.00
68012;BMP180;54794;48.348;7.878;2022-07-06T01:42:40;99692.00;;;22.00
68012;BMP180;54794;48.348;7.878;2022-07-06T01:45:07;99688.00;;;21.90
68012;BMP180;54794;48.348;7.878;2022-07-06T01:47:35;99686.00;;;21.90
68012;BMP180;54794;48.348;7.878;2022-07-06T01:50:07;99686.00;;;21.90
68012;BMP180;54794;48.348;7.878;2022-07-06T01:52:34;99689.00;;;21.80
68012;BMP180;54794;48.348;7.878;2022-07-06T01:55:01;99685.00;;;21.80
68012;BMP180;54794;48.348;7.878;2022-07-06T01:57:28;99676.00;;;21.80
68012;BMP180;54794;48.348;7.878;2022-07-06T01:59:55;99686.00;;;21.70
68012;BMP180;54794;48.348;7.878;2022-07-06T02:02:22;99693.00;;;21.70
68012;BMP180;54794;48.348;7.878;2022-07-06T02:04:49;99690.00;;;21.70
68012;BMP180;54794;48.348;7.878;2022-07-06T02:07:16;99692.00;;;21.70
68012;BMP180;54794;48.348;7.878;2022-07-06T02:09:43;99697.00;;;21.70
68012;BMP180;54794;48.348;7.878;2022-07-06T02:12:10;99700.00;;;21.70
68012;BMP180;54794;48.348;7.878;2022-07-06T02:14:37;99691.00;;;21.80
68012;BMP180;54794;48.348;7.878;2022-07-06T02:17:04;99698.00;;;21.80
68012;BMP180;54794;48.348;7.878;2022-07-06T02:19:31;99694.00;;;21.80
68012;BMP180;54794;48.348;7.878;2022-07-06T02:21:58;99697.00;;;21.80
68012;BMP180;54794;48.348;7.878;2022-07-06T02:24:25;99679.00;;;21.90
68012;BMP180;54794;48.348;7.878;2022-07-06T02:26:51;99686.00;;;21.90
68012;BMP180;54794;48.348;7.878;2022-07-06T02:29:18;99686.00;;;21.90
68012;BMP180;54794;48.348;7.878;2022-07-06T02:31:46;99688.00;;;21.90
68012;BMP180;54794;48.348;7.878;2022-07-06T02:34:13;99695.00;;;22.00
68012;BMP180;54794;48.348;7.878;2022-07-06T02:36:40;99700.00;;;22.00
68012;BMP180;54794;48.348;7.878;2022-07-06T02:39:07;99697.00;;;22.00
68012;BMP180;54794;48.348;7.878;2022-07-06T02:41:34;99706.00;;;22.00
68012;BMP180;54794;48.348;7.878;2022-07-06T02:44:01;99700.00;;;22.00
68012;BMP180;54794;48.348;7.878;2022-07-06T02:46:27;99704.00;;;22.00
68012;BMP180;54794;48.348;7.878;2022-07-06T02:48:54;99713.00;;;22.00
68012;BMP180;54794;48.348;7.878;2022-07-06T02:51:21;99722.00;;;21.90
68012;BMP180;54794;48.348;7.878;2022-07-06T02:53:50;99701.00;;;21.90
68012;BMP180;54794;48.348;7.878;2022-07-06T02:56:17;99712.00;;;21.90
68012;BMP180;54794;48.348;7.878;2022-07-06T02:58:44;99714.00;;;21.80
68012;BMP180;54794;48.348;7.878;2022-07-06T03:01:11;99709.00;;;21.80
68012;BMP180;54794;48.348;7.878;2022-07-06T03:03:38;99719.00;;;21.80
68012;BMP180;54794;48.348;7.878;2022-07-06T03:06:05;99712.00;;;21.70
68012;BMP180;54794;48.348;7.878;2022-07-06T03:08:32;99713.00;;;21.60
68012;BMP180;54794;48.348;7.878;2022-07-06T03:11:01;99712.00;;;21.60
68012;BMP180;54794;48.348;7.878;2022-07-06T03:13:28;99729.00;;;21.60
68012;BMP180;54794;48.348;7.878;2022-07-06T03:15:56;99719.00;;;21.50
68012;BMP180;54794;48.348;7.878;2022-07-06T03:18:23;99715.00;;;21.50
68012;BMP180;54794;48.348;7.878;2022-07-06T03:20:50;99717.00;;;21.40
68012;BMP180;54794;48.348;7.878;2022-07-06T03:23:17;99715.00;;;21.40
68012;BMP180;54794;48.348;7.878;2022-07-06T03:25:44;99725.00;;;21.40
68012;BMP180;54794;48.348;7.878;2022-07-06T03:28:11;99718.00;;;21.40
68012;BMP180;54794;48.348;7.878;2022-07-06T03:30:38;99719.00;;;21.30
68012;BMP180;54794;48.348;7.878;2022-07-06T03:33:05;99723.00;;;21.30
68012;BMP180;54794;48.348;7.878;2022-07-06T03:35:32;99722.00;;;21.30
68012;BMP180;54794;48.348;7.878;2022-07-06T03:37:59;99728.00;;;21.20
68012;BMP180;54794;48.348;7.878;2022-07-06T03:40:26;99734.00;;;21.20
68012;BMP180;54794;48.348;7.878;2022-07-06T03:42:53;99732.00;;;21.20
68012;BMP180;54794;48.348;7.878;2022-07-06T03:45:20;99724.00;;;21.10
68012;BMP180;54794;48.348;7.878;2022-07-06T03:47:46;99737.00;;;21.10
68012;BMP180;54794;48.348;7.878;2022-07-06T03:50:13;99731.00;;;21.10
68012;BMP180;54794;48.348;7.878;2022-07-06T03:52:40;99733.00;;;21.10
68012;BMP180;54794;48.348;7.878;2022-07-06T03:55:10;99730.00;;;21.10
68012;BMP180;54794;48.348;7.878;2022-07-06T03:57:38;99729.00;;;21.00
68012;BMP180;54794;48.348;7.878;2022-07-06T04:00:08;99731.00;;;21.10
68012;BMP180;54794;48.348;7.878;2022-07-06T04:02:35;99720.00;;;21.00
68012;BMP180;54794;48.348;7.878;2022-07-06T04:05:03;99730.00;;;21.10
68012;BMP180;54794;48.348;7.878;2022-07-06T04:07:30;99717.00;;;21.00
68012;BMP180;54794;48.348;7.878;2022-07-06T04:09:57;99725.00;;;21.00
68012;BMP180;54794;48.348;7.878;2022-07-06T04:12:23;99742.00;;;21.00
68012;BMP180;54794;48.348;7.878;2022-07-06T04:14:52;99737.00;;;21.00
68012;BMP180;54794;48.348;7.878;2022-07-06T04:17:19;99741.00;;;21.00
68012;BMP180;54794;48.348;7.878;2022-07-06T04:20:05;99742.00;;;21.00
68012;BMP180;54794;48.348;7.878;2022-07-06T04:22:32;99742.00;;;20.90
68012;BMP180;54794;48.348;7.878;2022-07-06T04:24:59;99741.00;;;20.90
68012;BMP180;54794;48.348;7.878;2022-07-06T04:27:26;99739.00;;;20.90
68012;BMP180;54794;48.348;7.878;2022-07-06T04:29:53;99741.00;;;20.90
68012;BMP180;54794;48.348;7.878;2022-07-06T04:32:20;99735.00;;;20.80
68012;BMP180;54794;48.348;7.878;2022-07-06T04:34:51;99750.00;;;20.80
68012;BMP180;54794;48.348;7.878;2022-07-06T04:37:18;99757.00;;;20.80
68012;BMP180;54794;48.348;7.878;2022-07-06T04:39:45;99757.00;;;20.80
68012;BMP180;54794;48.348;7.878;2022-07-06T04:42:11;99745.00;;;20.70
68012;BMP180;54794;48.348;7.878;2022-07-06T04:44:38;99749.00;;;20.70
68012;BMP180;54794;48.348;7.878;2022-07-06T04:47:05;99748.00;;;20.70
68012;BMP180;54794;48.348;7.878;2022-07-06T04:49:33;99752.00;;;20.70
68012;BMP180;54794;48.348;7.878;2022-07-06T04:52:00;99760.00;;;20.70
68012;BMP180;54794;48.348;7.878;2022-07-06T04:54:26;99756.00;;;20.70
68012;BMP180;54794;48.348;7.878;2022-07-06T04:56:53;99749.00;;;20.70
68012;BMP180;54794;48.348;7.878;2022-07-06T04:59:20;99751.00;;;20.80
68012;BMP180;54794;48.348;7.878;2022-07-06T05:01:47;99760.00;;;20.80
68012;BMP180;54794;48.348;7.878;2022-07-06T05:04:14;99754.00;;;20.90
68012;BMP180;54794;48.348;7.878;2022-07-06T05:06:43;99761.00;;;21.00
68012;BMP180;54794;48.348;7.878;2022-07-06T05:09:10;99775.00;;;21.00
68012;BMP180;54794;48.348;7.878;2022-07-06T05:11:37;99772.00;;;21.10
68012;BMP180;54794;48.348;7.878;2022-07-06T05:14:05;99774.00;;;21.20
68012;BMP180;54794;48.348;7.878;2022-07-06T05:16:33;99772.00;;;21.30
68012;BMP180;54794;48.348;7.878;2022-07-06T05:19:00;99763.00;;;21.30
68012;BMP180;54794;48.348;7.878;2022-07-06T05:21:27;99762.00;;;21.40
68012;BMP180;54794;48.348;7.878;2022-07-06T05:23:54;99774.00;;;21.50
68012;BMP180;54794;48.348;7.878;2022-07-06T05:26:21;99778.00;;;21.60
68012;BMP180;54794;48.348;7.878;2022-07-06T05:28:47;99764.00;;;21.60
68012;BMP180;54794;48.348;7.878;2022-07-06T05:31:14;99777.00;;;21.70
68012;BMP180;54794;48.348;7.878;2022-07-06T05:33:42;99767.00;;;21.70
68012;BMP180;54794;48.348;7.878;2022-07-06T05:36:09;99788.00;;;21.80
68012;BMP180;54794;48.348;7.878;2022-07-06T05:38:36;99780.00;;;21.90
68012;BMP180;54794;48.348;7.878;2022-07-06T05:41:03;99766.00;;;21.90
68012;BMP180;54794;48.348;7.878;2022-07-06T05:43:29;99775.00;;;22.00
68012;BMP180;54794;48.348;7.878;2022-07-06T05:45:56;99782.00;;;22.00
68012;BMP180;54794;48.348;7.878;2022-07-06T05:48:23;99782.00;;;22.10
68012;BMP180;54794;48.348;7.878;2022-07-06T05:51:08;99775.00;;;22.10
68012;BMP180;54794;48.348;7.878;2022-07-06T05:53:35;99780.00;;;22.20
68012;BMP180;54794;48.348;7.878;2022-07-06T05:56:02;99777.00;;;22.20
68012;BMP180;54794;48.348;7.878;2022-07-06T05:58:29;99780.00;;;22.30
68012;BMP180;54794;48.348;7.878;2022-07-06T06:00:56;99772.00;;;22.30
68012;BMP180;54794;48.348;7.878;2022-07-06T06:03:23;99780.00;;;22.40
68012;BMP180;54794;48.348;7.878;2022-07-06T06:05:51;99781.00;;;22.40
68012;BMP180;54794;48.348;7.878;2022-07-06T06:08:18;99785.00;;;22.50
68012;BMP180;54794;48.348;7.878;2022-07-06T06:10:45;99786.00;;;22.50
68012;BMP180;54794;48.348;7.878;2022-07-06T06:13:11;99793.00;;;22.60
68012;BMP180;54794;48.348;7.878;2022-07-06T06:15:38;99782.00;;;22.60
68012;BMP180;54794;48.348;7.878;2022-07-06T06:18:05;99791.00;;;22.70
68012;BMP180;54794;48.348;7.878;2022-07-06T06:20:32;99795.00;;;22.80
68012;BMP180;54794;48.348;7.878;2022-07-06T06:23:00;99780.00;;;22.80
68012;BMP180;54794;48.348;7.878;2022-07-06T06:25:39;99793.00;;;22.90
68012;BMP180;54794;48.348;7.878;2022-07-06T06:28:09;99800.00;;;22.90
68012;BMP180;54794;48.348;7.878;2022-07-06T06:30:38;99773.00;;;23.00
68012;BMP180;54794;48.348;7.878;2022-07-06T06:33:17;99792.00;;;23.10
68012;BMP180;54794;48.348;7.878;2022-07-06T06:35:50;99790.00;;;23.10
68012;BMP180;54794;48.348;7.878;2022-07-06T06:38:20;99788.00;;;23.10
68012;BMP180;54794;48.348;7.878;2022-07-06T06:40:48;99793.00;;;23.20
68012;BMP180;54794;48.348;7.878;2022-07-06T06:43:15;99790.00;;;23.30
68012;BMP180;54794;48.348;7.878;2022-07-06T06:45:42;99791.00;;;23.30
68012;BMP180;54794;48.348;7.878;2022-07-06T06:48:11;99777.00;;;23.40
68012;BMP180;54794;48.348;7.878;2022-07-06T06:50:44;99786.00;;;23.40
68012;BMP180;54794;48.348;7.878;2022-07-06T06:53:11;99788.00;;;23.50
68012;BMP180;54794;48.348;7.878;2022-07-06T06:55:39;99776.00;;;23.50
68012;BMP180;54794;48.348;7.878;2022-07-06T06:58:06;99779.00;;;23.50
68012;BMP180;54794;48.348;7.878;2022-07-06T07:00:33;99785.00;;;23.60
68012;BMP180;54794;48.348;7.878;2022-07-06T07:03:00;99780.00;;;23.70
68012;BMP180;54794;48.348;7.878;2022-07-06T07:05:26;99792.00;;;23.80
68012;BMP180;54794;48.348;7.878;2022-07-06T07:07:53;99784.00;;;23.90
68012;BMP180;54794;48.348;7.878;2022-07-06T07:10:30;99797.00;;;23.90
68012;BMP180;54794;48.348;7.878;2022-07-06T07:12:57;99786.00;;;24.00
68012;BMP180;54794;48.348;7.878;2022-07-06T07:15:24;99798.00;;;24.10
68012;BMP180;54794;48.348;7.878;2022-07-06T07:17:51;99786.00;;;24.10
68012;BMP180;54794;48.348;7.878;2022-07-06T07:20:18;99792.00;;;24.20
68012;BMP180;54794;48.348;7.878;2022-07-06T07:22:45;99798.00;;;24.20
68012;BMP180;54794;48.348;7.878;2022-07-06T07:25:12;99797.00;;;24.30
68012;BMP180;54794;48.348;7.878;2022-07-06T07:27:39;99791.00;;;24.40
68012;BMP180;54794;48.348;7.878;2022-07-06T07:30:07;99794.00;;;24.50
68012;BMP180;54794;48.348;7.878;2022-07-06T07:32:34;99780.00;;;24.50
68012;BMP180;54794;48.348;7.878;2022-07-06T07:35:01;99792.00;;;24.60
68012;BMP180;54794;48.348;7.878;2022-07-06T07:37:29;99799.00;;;24.70
68012;BMP180;54794;48.348;7.878;2022-07-06T07:39:56;99793.00;;;24.70
68012;BMP180;54794;48.348;7.878;2022-07-06T07:42:23;99794.00;;;24.80
68012;BMP180;54794;48.348;7.878;2022-07-06T07:44:51;99789.00;;;24.90
68012;BMP180;54794;48.348;7.878;2022-07-06T07:47:18;99788.00;;;25.00
68012;BMP180;54794;48.348;7.878;2022-07-06T07:49:45;99792.00;;;25.00
68012;BMP180;54794;48.348;7.878;2022-07-06T07:52:12;99783.00;;;25.10
68012;BMP180;54794;48.348;7.878;2022-07-06T07:54:39;99790.00;;;25.20
68012;BMP180;54794;48.348;7.878;2022-07-06T07:57:13;99778.00;;;25.20
68012;BMP180;54794;48.348;7.878;2022-07-06T07:59:40;99787.00;;;25.30
68012;BMP180;54794;48.348;7.878;2022-07-06T08:02:08;99794.00;;;25.40
68012;BMP180;54794;48.348;7.878;2022-07-06T08:04:35;99791.00;;;25.50
68012;BMP180;54794;48.348;7.878;2022-07-06T08:07:03;99787.00;;;25.60
68012;BMP180;54794;48.348;7.878;2022-07-06T08:09:30;99795.00;;;25.70
68012;BMP180;54794;48.348;7.878;2022-07-06T08:11:57;99796.00;;;25.70
68012;BMP180;54794;48.348;7.878;2022-07-06T08:14:25;99797.00;;;25.80
68012;BMP180;54794;48.348;7.878;2022-07-06T08:16:52;99801.00;;;25.80
68012;BMP180;54794;48.348;7.878;2022-07-06T08:19:19;99788.00;;;25.90
68012;BMP180;54794;48.348;7.878;2022-07-06T08:21:46;99797.00;;;26.00
68012;BMP180;54794;48.348;7.878;2022-07-06T08:24:13;99804.00;;;26.10
68012;BMP180;54794;48.348;7.878;2022-07-06T08:26:40;99794.00;;;26.20
68012;BMP180;54794;48.348;7.878;2022-07-06T08:29:07;99799.00;;;26.30
68012;BMP180;54794;48.348;7.878;2022-07-06T08:31:34;99802.00;;;26.40
68012;BMP180;54794;48.348;7.878;2022-07-06T08:34:22;99808.00;;;26.50
68012;BMP180;54794;48.348;7.878;2022-07-06T08:36:49;99807.00;;;26.60
68012;BMP180;54794;48.348;7.878;2022-07-06T08:39:16;99803.00;;;26.60
68012;BMP180;54794;48.348;7.878;2022-07-06T08:41:45;99796.00;;;26.70
68012;BMP180;54794;48.348;7.878;2022-07-06T08:44:16;99806.00;;;26.80
68012;BMP180;54794;48.348;7.878;2022-07-06T08:46:44;99797.00;;;26.90
68012;BMP180;54794;48.348;7.878;2022-07-06T08:49:16;99808.00;;;27.00
68012;BMP180;54794;48.348;7.878;2022-07-06T08:51:45;99799.00;;;27.10
68012;BMP180;54794;48.348;7.878;2022-07-06T08:54:12;99792.00;;;27.20
68012;BMP180;54794;48.348;7.878;2022-07-06T08:56:40;99799.00;;;27.30
68012;BMP180;54794;48.348;7.878;2022-07-06T08:59:16;99808.00;;;27.40
68012;BMP180;54794;48.348;7.878;2022-07-06T09:01:44;99806.00;;;27.40
68012;BMP180;54794;48.348;7.878;2022-07-06T09:04:16;99810.00;;;27.50
68012;BMP180;54794;48.348;7.878;2022-07-06T09:06:46;99807.00;;;27.60
68012;BMP180;54794;48.348;7.878;2022-07-06T09:09:23;99810.00;;;27.70
68012;BMP180;54794;48.348;7.878;2022-07-06T09:11:52;99817.00;;;27.80
68012;BMP180;54794;48.348;7.878;2022-07-06T09:14:19;99813.00;;;27.90
68012;BMP180;54794;48.348;7.878;2022-07-06T09:16:56;99802.00;;;27.90
68012;BMP180;54794;48.348;7.878;2022-07-06T09:19:32;99819.00;;;28.00
68012;BMP180;54794;48.348;7.878;2022-07-06T09:22:03;99821.00;;;28.00
68012;BMP180;54794;48.348;7.878;2022-07-06T09:24:31;99820.00;;;28.10
68012;BMP180;54794;48.348;7.878;2022-07-06T09:26:59;99828.00;;;28.20
68012;BMP180;54794;48.348;7.878;2022-07-06T09:29:31;99805.00;;;28.30
68012;BMP180;54794;48.348;7.878;2022-07-06T09:32:02;99798.00;;;28.40
68012;BMP180;54794;48.348;7.878;2022-07-06T09:34:44;99834.00;;;28.50
68012;BMP180;54794;48.348;7.878;2022-07-06T09:37:13;99837.00;;;28.60
68012;BMP180;54794;48.348;7.878;2022-07-06T09:39:42;99836.00;;;28.70
68012;BMP180;54794;48.348;7.878;2022-07-06T09:42:10;99821.00;;;28.80
68012;BMP180;54794;48.348;7.878;2022-07-06T09:44:39;99829.00;;;28.80
68012;BMP180;54794;48.348;7.878;2022-07-06T09:47:09;99840.00;;;28.90
68012;BMP180;54794;48.348;7.878;2022-07-06T09:49:39;99848.00;;;29.00
68012;BMP180;54794;48.348;7.878;2022-07-06T09:52:11;99844.00;;;29.00
68012;BMP180;54794;48.348;7.878;2022-07-06T09:54:39;99832.00;;;29.10
68012;BMP180;54794;48.348;7.878;2022-07-06T09:57:07;99846.00;;;29.20
68012;BMP180;54794;48.348;7.878;2022-07-06T09:59:36;99847.00;;;29.30
68012;BMP180;54794;48.348;7.878;2022-07-06T10:02:06;99851.00;;;29.30
68012;BMP180;54794;48.348;7.878;2022-07-06T10:04:34;99851.00;;;29.40
68012;BMP180;54794;48.348;7.878;2022-07-06T10:07:01;99851.00;;;29.50
68012;BMP180;54794;48.348;7.878;2022-07-06T10:09:29;99852.00;;;29.50
68012;BMP180;54794;48.348;7.878;2022-07-06T10:12:01;99859.00;;;29.60
68012;BMP180;54794;48.348;7.878;2022-07-06T10:14:32;99857.00;;;29.70
68012;BMP180;54794;48.348;7.878;2022-07-06T10:17:02;99832.00;;;29.70
68012;BMP180;54794;48.348;7.878;2022-07-06T10:19:31;99853.00;;;29.80
68012;BMP180;54794;48.348;7.878;2022-07-06T10:22:01;99852.00;;;29.90
68012;BMP180;54794;48.348;7.878;2022-07-06T10:24:30;99850.00;;;30.00
68012;BMP180;54794;48.348;7.878;2022-07-06T10:27:00;99858.00;;;30.10
68012;BMP180;54794;48.348;7.878;2022-07-06T10:29:30;99849.00;;;30.20
68012;BMP180;54794;48.348;7.878;2022-07-06T10:31:57;99855.00;;;30.30
68012;BMP180;54794;48.348;7.878;2022-07-06T10:34:24;99849.00;;;30.30
68012;BMP180;54794;48.348;7.878;2022-07-06T10:36:53;99847.00;;;30.40
68012;BMP180;54794;48.348;7.878;2022-07-06T10:39:36;99841.00;;;30.50
68012;BMP180;54794;48.348;7.878;2022-07-06T10:45:12;99836.00;;;30.60
68012;BMP180;54794;48.348;7.878;2022-07-06T10:47:43;99842.00;;;30.70
68012;BMP180;54794;48.348;7.878;2022-07-06T10:50:11;99839.00;;;30.80
68012;BMP180;54794;48.348;7.878;2022-07-06T10:52:58;99843.00;;;30.80
68012;BMP180;54794;48.348;7.878;2022-07-06T10:55:36;99843.00;;;30.80
68012;BMP180;54794;48.348;7.878;2022-07-06T10:58:05;99848.00;;;30.90
68012;BMP180;54794;48.348;7.878;2022-07-06T11:00:55;99849.00;;;30.90
68012;BMP180;54794;48.348;7.878;2022-07-06T11:06:20;99844.00;;;31.00
68012;BMP180;54794;48.348;7.878;2022-07-06T11:08:56;99842.00;;;31.00
68012;BMP180;54794;48.348;7.878;2022-07-06T11:19:19;99839.00;;;31.10
68012;BMP180;54794;48.348;7.878;2022-07-06T11:21:51;99828.00;;;31.20
68012;BMP180;54794;48.348;7.878;2022-07-06T11:24:21;99831.00;;;31.30
68012;BMP180;54794;48.348;7.878;2022-07-06T11:26:51;99824.00;;;31.40
68012;BMP180;54794;48.348;7.878;2022-07-06T11:29:22;99830.00;;;31.40
68012;BMP180;54794;48.348;7.878;2022-07-06T11:31:53;99819.00;;;31.40
68012;BMP180;54794;48.348;7.878;2022-07-06T11:34:24;99812.00;;;31.40
68012;BMP180;54794;48.348;7.878;2022-07-06T11:37:07;99823.00;;;31.50
68012;BMP180;54794;48.348;7.878;2022-07-06T11:39:45;99825.00;;;31.60
68012;BMP180;54794;48.348;7.878;2022-07-06T11:42:16;99809.00;;;31.70
68012;BMP180;54794;48.348;7.878;2022-07-06T11:44:47;99808.00;;;31.70
68012;BMP180;54794;48.348;7.878;2022-07-06T11:47:15;99812.00;;;31.80
68012;BMP180;54794;48.348;7.878;2022-07-06T11:49:51;99789.00;;;31.90
68012;BMP180;54794;48.348;7.878;2022-07-06T11:52:19;99810.00;;;31.90
68012;BMP180;54794;48.348;7.878;2022-07-06T11:54:46;99798.00;;;32.00
68012;BMP180;54794;48.348;7.878;2022-07-06T11:57:13;99793.00;;;32.00
68012;BMP180;54794;48.348;7.878;2022-07-06T11:59:41;99810.00;;;32.00
68012;BMP180;54794;48.348;7.878;2022-07-06T12:02:12;99803.00;;;32.00
68012;BMP180;54794;48.348;7.878;2022-07-06T12:04:43;99800.00;;;32.00
68012;BMP180;54794;48.348;7.878;2022-07-06T12:07:14;99800.00;;;32.10
68012;BMP180;54794;48.348;7.878;2022-07-06T12:09:45;99793.00;;;32.10
68012;BMP180;54794;48.348;7.878;2022-07-06T12:12:13;99799.00;;;32.20
68012;BMP180;54794;48.348;7.878;2022-07-06T12:14:41;99801.00;;;32.20
68012;BMP180;54794;48.348;7.878;2022-07-06T12:17:11;99802.00;;;32.20
68012;BMP180;54794;48.348;7.878;2022-07-06T12:19:40;99799.00;;;32.30
68012;BMP180;54794;48.348;7.878;2022-07-06T12:22:08;99797.00;;;32.30
68012;BMP180;54794;48.348;7.878;2022-07-06T12:24:42;99802.00;;;32.40
68012;BMP180;54794;48.348;7.878;2022-07-06T12:27:14;99799.00;;;32.40
68012;BMP180;54794;48.348;7.878;2022-07-06T12:29:41;99792.00;;;32.50
68012;BMP180;54794;48.348;7.878;2022-07-06T12:32:21;99790.00;;;32.60
68012;BMP180;54794;48.348;7.878;2022-07-06T12:35:08;99785.00;;;32.70
68012;BMP180;54794;48.348;7.878;2022-07-06T12:37:35;99798.00;;;32.80
68012;BMP180;54794;48.348;7.878;2022-07-06T12:40:12;99797.00;;;32.90
68012;BMP180;54794;48.348;7.878;2022-07-06T12:42:49;99793.00;;;32.90
68012;BMP180;54794;48.348;7.878;2022-07-06T12:45:16;99793.00;;;33.00
68012;BMP180;54794;48.348;7.878;2022-07-06T12:48:00;99797.00;;;32.90
68012;BMP180;54794;48.348;7.878;2022-07-06T12:50:37;99804.00;;;33.00
68012;BMP180;54794;48.348;7.878;2022-07-06T12:53:06;99802.00;;;32.90
68012;BMP180;54794;48.348;7.878;2022-07-06T12:56:11;99799.00;;;32.90
68012;BMP180;54794;48.348;7.878;2022-07-06T12:58:38;99799.00;;;32.70
68012;BMP180;54794;48.348;7.878;2022-07-06T13:01:05;99788.00;;;32.70
68012;BMP180;54794;48.348;7.878;2022-07-06T13:03:40;99782.00;;;32.70
68012;BMP180;54794;48.348;7.878;2022-07-06T13:06:08;99795.00;;;32.60
68012;BMP180;54794;48.348;7.878;2022-07-06T13:08:34;99788.00;;;32.60
68012;BMP180;54794;48.348;7.878;2022-07-06T13:11:01;99794.00;;;32.60
68012;BMP180;54794;48.348;7.878;2022-07-06T13:13:28;99782.00;;;32.60
68012;BMP180;54794;48.348;7.878;2022-07-06T13:15:55;99782.00;;;32.60
68012;BMP180;54794;48.348;7.878;2022-07-06T13:18:23;99780.00;;;32.60
68012;BMP180;54794;48.348;7.878;2022-07-06T13:20:50;99780.00;;;32.60
68012;BMP180;54794;48.348;7.878;2022-07-06T13:23:17;99771.00;;;32.60
68012;BMP180;54794;48.348;7.878;2022-07-06T13:25:44;99778.00;;;32.60
68012;BMP180;54794;48.348;7.878;2022-07-06T13:28:11;99777.00;;;32.70
68012;BMP180;54794;48.348;7.878;2022-07-06T13:30:38;99767.00;;;32.70
68012;BMP180;54794;48.348;7.878;2022-07-06T13:33:05;99775.00;;;32.80
68012;BMP180;54794;48.348;7.878;2022-07-06T13:35:32;99771.00;;;32.90
68012;BMP180;54794;48.348;7.878;2022-07-06T13:37:59;99773.00;;;33.00
68012;BMP180;54794;48.348;7.878;2022-07-06T13:40:26;99771.00;;;33.00
68012;BMP180;54794;48.348;7.878;2022-07-06T13:42:53;99771.00;;;33.10
68012;BMP180;54794;48.348;7.878;2022-07-06T13:45:21;99767.00;;;33.20
68012;BMP180;54794;48.348;7.878;2022-07-06T13:47:48;99765.00;;;33.30
68012;BMP180;54794;48.348;7.878;2022-07-06T13:50:15;99771.00;;;33.30
68012;BMP180;54794;48.348;7.878;2022-07-06T13:52:41;99773.00;;;33.30
68012;BMP180;54794;48.348;7.878;2022-07-06T13:55:09;99768.00;;;33.40
68012;BMP180;54794;48.348;7.878;2022-07-06T13:57:36;99768.00;;;33.40
68012;BMP180;54794;48.348;7.878;2022-07-06T14:00:05;99774.00;;;33.30
68012;BMP180;54794;48.348;7.878;2022-07-06T14:02:33;99763.00;;;33.30
68012;BMP180;54794;48.348;7.878;2022-07-06T14:05:00;99758.00;;;33.30
68012;BMP180;54794;48.348;7.878;2022-07-06T14:07:27;99758.00;;;33.20
68012;BMP180;54794;48.348;7.878;2022-07-06T14:09:54;99769.00;;;33.20
68012;BMP180;54794;48.348;7.878;2022-07-06T14:12:21;99765.00;;;33.20
68012;BMP180;54794;48.348;7.878;2022-07-06T14:14:50;99762.00;;;33.30
68012;BMP180;54794;48.348;7.878;2022-07-06T14:17:18;99750.00;;;33.30
68012;BMP180;54794;48.348;7.878;2022-07-06T14:19:45;99760.00;;;33.30
68012;BMP180;54794;48.348;7.878;2022-07-06T14:22:11;99755.00;;;33.30
68012;BMP180;54794;48.348;7.878;2022-07-06T14:24:38;99743.00;;;33.30
68012;BMP180;54794;48.348;7.878;2022-07-06T14:27:05;99737.00;;;33.40
68012;BMP180;54794;48.348;7.878;2022-07-06T14:29:32;99741.00;;;33.40
68012;BMP180;54794;48.348;7.878;2022-07-06T14:32:00;99718.00;;;33.40